createdAt,value
2023-01-28T00:01:59.117Z,3.10
2023-01-28T00:04:26.998Z,3.06
2023-01-28T00:06:54.860Z,3.00
2023-01-28T00:09:22.758Z,3.02
2023-01-28T00:11:51.602Z,3.09
2023-01-28T00:14:19.922Z,3.10
2023-01-28T00:16:47.771Z,3.14
2023-01-28T00:19:15.744Z,3.21
2023-01-28T00:21:43.587Z,3.23
2023-01-28T00:24:11.505Z,3.16
2023-01-28T00:26:39.293Z,3.11
2023-01-28T00:29:07.628Z,3.11
2023-01-28T00:31:35.646Z,3.12
2023-01-28T00:34:03.873Z,3.09
2023-01-28T00:36:33.959Z,3.01
2023-01-28T00:39:02.026Z,3.05
2023-01-28T00:41:30.301Z,3.14
2023-01-28T00:43:59.639Z,3.18
2023-01-28T00:46:28.040Z,3.21
2023-01-28T00:48:56.509Z,3.22
2023-01-28T00:51:24.562Z,3.21
2023-01-28T00:53:53.996Z,3.19
2023-01-28T00:56:21.938Z,3.21
2023-01-28T00:58:50.406Z,3.29
2023-01-28T01:01:22.878Z,3.31
2023-01-28T01:03:57.877Z,3.33
2023-01-28T01:06:26.130Z,3.33
2023-01-28T01:08:53.938Z,3.37
2023-01-28T01:11:22.233Z,3.45
2023-01-28T01:13:54.880Z,3.40
2023-01-28T01:16:26.570Z,3.38
2023-01-28T01:18:56.432Z,3.40
2023-01-28T01:21:28.989Z,3.44
2023-01-28T01:23:57.379Z,3.47
2023-01-28T01:26:27.497Z,3.53
2023-01-28T01:28:55.558Z,3.54
2023-01-28T01:31:23.712Z,3.48
2023-01-28T01:33:53.288Z,3.45
2023-01-28T01:36:22.169Z,3.41
2023-01-28T01:38:55.268Z,3.41
2023-01-28T01:41:30.704Z,3.43
2023-01-28T01:44:02.009Z,3.47
2023-01-28T01:46:38.494Z,3.56
2023-01-28T01:49:27.488Z,3.62
2023-01-28T01:52:08.956Z,3.61
2023-01-28T01:54:41.827Z,3.56
2023-01-28T01:57:16.271Z,3.55
2023-01-28T01:59:44.735Z,3.51
2023-01-28T02:02:13.583Z,3.45
2023-01-28T02:04:47.022Z,3.45
2023-01-28T02:07:19.632Z,3.46
2023-01-28T02:09:47.498Z,3.47
2023-01-28T02:12:23.286Z,3.46
2023-01-28T02:15:02.100Z,3.46
2023-01-28T02:17:30.797Z,3.48
2023-01-28T02:20:06.199Z,3.48
2023-01-28T02:23:05.134Z,3.55
2023-01-28T02:26:10.512Z,3.57
2023-01-28T02:28:56.415Z,3.58
2023-01-28T02:31:34.888Z,3.55
2023-01-28T02:34:45.538Z,3.54
2023-01-28T02:37:40.582Z,3.53
2023-01-28T02:40:20.168Z,3.54
2023-01-28T02:42:48.607Z,3.53
2023-01-28T02:45:22.091Z,3.52
2023-01-28T02:47:59.416Z,3.55
2023-01-28T02:50:46.724Z,3.54
2023-01-28T02:53:44.564Z,3.56
2023-01-28T02:56:29.460Z,3.56
2023-01-28T02:59:33.928Z,3.54
2023-01-28T03:02:31.238Z,3.61
2023-01-28T03:05:08.241Z,3.67
2023-01-28T03:07:39.050Z,3.64
2023-01-28T03:10:16.107Z,3.66
2023-01-28T03:13:07.206Z,3.65
2023-01-28T03:16:06.860Z,3.64
2023-01-28T03:19:09.210Z,3.68
2023-01-28T03:22:01.519Z,3.67
2023-01-28T03:24:59.046Z,3.62
2023-01-28T03:28:15.109Z,3.60
2023-01-28T03:31:19.140Z,3.61
2023-01-28T03:34:12.583Z,3.63
2023-01-28T03:36:47.457Z,3.63
2023-01-28T03:39:31.089Z,3.67
2023-01-28T03:42:10.577Z,3.74
2023-01-28T03:44:54.753Z,3.84
2023-01-28T03:47:26.981Z,3.92
2023-01-28T03:49:57.619Z,3.87
2023-01-28T03:52:30.383Z,3.81
2023-01-28T03:55:14.623Z,3.79
2023-01-28T03:57:44.786Z,3.87
2023-01-28T04:00:14.421Z,3.91
2023-01-28T04:02:42.331Z,3.92
2023-01-28T04:05:15.971Z,4.02
2023-01-28T04:07:47.450Z,4.05
2023-01-28T04:10:21.556Z,4.14
2023-01-28T04:13:07.375Z,4.09
2023-01-28T04:15:36.438Z,3.98
2023-01-28T04:18:04.666Z,3.89
2023-01-28T04:20:32.686Z,3.88
2023-01-28T04:23:02.327Z,3.85
2023-01-28T04:25:34.911Z,3.87
2023-01-28T04:28:05.484Z,3.93
2023-01-28T04:30:33.406Z,3.88
2023-01-28T04:33:19.843Z,3.85
2023-01-28T04:35:59.149Z,3.91
2023-01-28T04:38:46.592Z,3.90
2023-01-28T04:41:43.830Z,3.83
2023-01-28T04:44:31.998Z,3.83
2023-01-28T04:47:19.927Z,3.85
2023-01-28T04:50:10.737Z,3.83
2023-01-28T04:52:57.561Z,3.79
2023-01-28T04:55:52.431Z,3.67
2023-01-28T04:58:21.867Z,3.50
2023-01-28T05:01:00.215Z,3.38
2023-01-28T05:03:28.593Z,3.36
2023-01-28T05:05:57.225Z,3.41
2023-01-28T05:08:35.923Z,3.46
2023-01-28T05:11:04.035Z,3.48
2023-01-28T05:13:31.971Z,3.45
2023-01-28T05:16:00.740Z,3.49
2023-01-28T05:18:28.638Z,3.56
2023-01-28T05:21:06.391Z,3.61
2023-01-28T05:23:36.275Z,3.62
2023-01-28T05:26:04.612Z,3.50
2023-01-28T05:28:32.470Z,3.49
2023-01-28T05:31:07.499Z,3.49
2023-01-28T05:33:35.463Z,3.36
2023-01-28T05:36:05.803Z,3.34
2023-01-28T05:38:33.761Z,3.29
2023-01-28T05:41:01.691Z,3.25
2023-01-28T05:43:29.923Z,3.25
2023-01-28T05:46:19.659Z,3.28
2023-01-28T05:49:14.149Z,3.35
2023-01-28T05:52:17.331Z,3.46
2023-01-28T05:54:46.259Z,3.48
2023-01-28T05:57:14.318Z,3.49
2023-01-28T05:59:42.280Z,3.40
2023-01-28T06:02:10.248Z,3.38
2023-01-28T06:04:39.124Z,3.33
2023-01-28T06:07:07.063Z,3.22
2023-01-28T06:09:35.027Z,3.19
2023-01-28T06:12:03.056Z,3.23
2023-01-28T06:14:35.704Z,3.26
2023-01-28T06:17:30.305Z,3.22
2023-01-28T06:20:10.360Z,3.17
2023-01-28T06:22:39.979Z,3.26
2023-01-28T06:25:08.927Z,3.35
2023-01-28T06:27:37.080Z,3.33
2023-01-28T06:30:06.010Z,3.28
2023-01-28T06:32:33.942Z,3.34
2023-01-28T06:35:01.805Z,3.39
2023-01-28T06:37:29.737Z,3.40
2023-01-28T06:39:57.539Z,3.38
2023-01-28T06:42:25.321Z,3.41
2023-01-28T06:44:53.092Z,3.46
2023-01-28T06:47:20.903Z,3.50
2023-01-28T06:49:48.771Z,3.47
2023-01-28T06:52:16.652Z,3.36
2023-01-28T06:54:44.629Z,3.33
2023-01-28T06:57:12.473Z,3.40
2023-01-28T06:59:40.304Z,3.50
2023-01-28T07:02:11.539Z,3.53
2023-01-28T07:04:39.447Z,3.58
2023-01-28T07:07:07.304Z,3.60
2023-01-28T07:09:35.092Z,3.55
2023-01-28T07:12:05.311Z,3.48
2023-01-28T07:14:33.333Z,3.44
2023-01-28T07:17:01.164Z,3.36
2023-01-28T07:19:28.975Z,3.25
2023-01-28T07:22:00.706Z,3.21
2023-01-28T07:24:29.789Z,3.29
2023-01-28T07:26:57.942Z,3.38
2023-01-28T07:29:25.799Z,3.45
2023-01-28T07:31:53.713Z,3.51
2023-01-28T07:34:21.652Z,3.58
2023-01-28T07:36:49.428Z,3.56
2023-01-28T07:39:17.236Z,3.57
2023-01-28T07:41:45.059Z,3.54
2023-01-28T07:44:31.331Z,3.52
2023-01-28T07:46:59.402Z,3.45
2023-01-28T07:49:27.599Z,3.47
2023-01-28T07:51:55.463Z,3.46
2023-01-28T07:54:23.293Z,3.54
2023-01-28T07:56:51.131Z,3.64
2023-01-28T07:59:19.347Z,3.65
2023-01-28T08:01:47.165Z,3.67
2023-01-28T08:04:15.018Z,3.68
2023-01-28T08:06:42.932Z,3.77
2023-01-28T08:09:11.166Z,3.78
2023-01-28T08:11:39.777Z,3.71
2023-01-28T08:14:07.675Z,3.72
2023-01-28T08:16:35.512Z,3.76
2023-01-28T08:19:03.861Z,3.94
2023-01-28T08:21:31.680Z,3.98
2023-01-28T08:23:59.520Z,3.93
2023-01-28T08:26:27.352Z,3.92
2023-01-28T08:28:55.107Z,4.00
2023-01-28T08:31:22.978Z,4.05
2023-01-28T08:33:50.857Z,4.17
2023-01-28T08:36:18.707Z,4.20
2023-01-28T08:38:46.634Z,4.32
2023-01-28T08:41:14.529Z,4.37
2023-01-28T08:43:42.396Z,4.37
2023-01-28T08:46:10.319Z,4.41
2023-01-28T08:48:38.572Z,4.39
2023-01-28T08:51:06.707Z,4.38
2023-01-28T08:53:35.370Z,4.41
2023-01-28T08:56:03.331Z,4.50
2023-01-28T08:58:31.642Z,4.56
2023-01-28T09:01:06.432Z,4.54
2023-01-28T09:03:36.023Z,4.52
2023-01-28T09:06:05.767Z,4.55
2023-01-28T09:08:33.708Z,4.60
2023-01-28T09:11:01.871Z,4.66
2023-01-28T09:13:30.168Z,4.69
2023-01-28T09:15:58.184Z,4.64
2023-01-28T09:18:26.039Z,4.60
2023-01-28T09:20:53.804Z,4.58
2023-01-28T09:23:21.654Z,4.56
2023-01-28T09:25:49.523Z,4.53
2023-01-28T09:28:17.445Z,4.55
2023-01-28T09:30:45.346Z,4.56
2023-01-28T09:33:13.443Z,4.53
2023-01-28T09:35:41.285Z,4.52
2023-01-28T09:38:09.143Z,4.53
2023-01-28T09:40:43.287Z,4.56
2023-01-28T09:43:29.368Z,4.62
2023-01-28T09:46:02.340Z,4.71
2023-01-28T09:48:38.209Z,4.74
2023-01-28T09:51:40.588Z,4.83
2023-01-28T09:54:49.964Z,4.93
2023-01-28T09:57:39.319Z,5.05
2023-01-28T10:00:41.701Z,5.12
2023-01-28T10:03:22.543Z,5.16
2023-01-28T10:06:18.811Z,5.24
2023-01-28T10:09:22.232Z,5.37
2023-01-28T10:12:05.368Z,5.43
2023-01-28T10:14:45.294Z,5.50
2023-01-28T10:17:37.014Z,5.61
2023-01-28T10:20:26.000Z,5.73
2023-01-28T10:23:12.492Z,5.86
2023-01-28T10:25:45.142Z,5.91
2023-01-28T10:28:39.960Z,6.00
2023-01-28T10:31:14.307Z,6.15
2023-01-28T10:33:42.474Z,6.22
2023-01-28T10:36:10.741Z,6.22
2023-01-28T10:38:38.573Z,6.22
2023-01-28T10:41:08.904Z,6.25
2023-01-28T10:43:41.735Z,6.33
2023-01-28T10:46:29.878Z,6.41
2023-01-28T10:49:09.925Z,6.39
2023-01-28T10:51:42.786Z,6.39
2023-01-28T10:54:37.151Z,6.45
2023-01-28T10:57:13.349Z,6.52
2023-01-28T10:59:42.141Z,6.55
2023-01-28T11:02:36.880Z,6.64
2023-01-28T11:05:18.683Z,6.69
2023-01-28T11:07:50.567Z,6.74
2023-01-28T11:10:37.281Z,6.74
2023-01-28T11:13:15.198Z,6.74
2023-01-28T11:15:49.939Z,6.77
2023-01-28T11:18:25.351Z,6.74
2023-01-28T11:21:01.163Z,6.77
2023-01-28T11:23:38.660Z,6.81
2023-01-28T11:26:14.494Z,6.77
2023-01-28T11:28:45.021Z,6.76
2023-01-28T11:31:19.163Z,6.79
2023-01-28T11:34:03.819Z,6.85
2023-01-28T11:36:35.481Z,6.84
2023-01-28T11:39:28.521Z,6.86
2023-01-28T11:42:21.547Z,6.83
2023-01-28T11:44:50.395Z,6.82
2023-01-28T11:47:33.113Z,6.87
2023-01-28T11:51:06.197Z,6.90
2023-01-28T11:54:10.891Z,6.92
2023-01-28T11:57:19.744Z,6.96
2023-01-28T12:00:09.282Z,6.97
2023-01-28T12:02:49.018Z,6.99
2023-01-28T12:05:40.437Z,7.00
2023-01-28T12:08:20.938Z,7.14
2023-01-28T12:11:48.262Z,7.15
2023-01-28T12:14:40.604Z,7.21
2023-01-28T12:17:22.092Z,7.25
2023-01-28T12:20:14.225Z,7.27
2023-01-28T12:22:51.140Z,7.28
2023-01-28T12:25:50.393Z,7.35
2023-01-28T12:28:45.676Z,7.39
2023-01-28T12:31:33.116Z,7.40
2023-01-28T12:34:46.426Z,7.48
2023-01-28T12:37:28.255Z,7.64
2023-01-28T12:40:22.256Z,7.75
2023-01-28T12:43:10.517Z,7.86
2023-01-28T12:45:52.301Z,7.85
2023-01-28T12:48:47.236Z,7.84
2023-01-28T12:51:22.644Z,7.85
2023-01-28T12:54:18.124Z,7.87
2023-01-28T12:56:54.974Z,7.88
2023-01-28T12:59:30.353Z,7.87
2023-01-28T13:02:05.078Z,7.90
2023-01-28T13:04:45.861Z,7.84
2023-01-28T13:07:55.375Z,7.84
2023-01-28T13:10:36.739Z,7.83
2023-01-28T13:13:06.386Z,7.76
2023-01-28T13:15:41.809Z,7.69
2023-01-28T13:18:42.678Z,7.69
2023-01-28T13:21:18.147Z,7.81
2023-01-28T13:23:49.372Z,7.86
2023-01-28T13:26:20.362Z,7.83
2023-01-28T13:28:52.567Z,7.80
2023-01-28T13:31:24.054Z,7.81
2023-01-28T13:33:55.575Z,7.78
2023-01-28T13:36:28.178Z,7.75
2023-01-28T13:39:18.287Z,7.70
2023-01-28T13:42:10.174Z,7.65
2023-01-28T13:44:39.087Z,7.60
2023-01-28T13:47:07.430Z,7.54
2023-01-28T13:49:38.171Z,7.53
2023-01-28T13:52:16.835Z,7.56
2023-01-28T13:54:55.651Z,7.51
2023-01-28T13:57:54.147Z,7.46
2023-01-28T14:00:34.288Z,7.43
2023-01-28T14:03:23.813Z,7.40
2023-01-28T14:06:13.427Z,7.42
2023-01-28T14:09:06.627Z,7.46
2023-01-28T14:11:55.724Z,7.52
2023-01-28T14:14:41.962Z,7.53
2023-01-28T14:17:44.743Z,7.48
2023-01-28T14:20:28.855Z,7.46
2023-01-28T14:23:04.000Z,7.40
2023-01-28T14:25:51.954Z,7.36
2023-01-28T14:28:38.211Z,7.33
2023-01-28T14:31:22.175Z,7.26
2023-01-28T14:33:50.404Z,7.30
2023-01-28T14:36:18.356Z,7.30
2023-01-28T14:38:47.117Z,7.24
2023-01-28T14:41:26.171Z,7.16
2023-01-28T14:43:56.071Z,7.07
2023-01-28T14:46:53.281Z,6.94
2023-01-28T14:50:08.779Z,6.93
2023-01-28T14:53:23.216Z,6.93
2023-01-28T14:56:29.340Z,6.88
2023-01-28T14:59:33.929Z,6.85
2023-01-28T15:02:03.202Z,6.84
2023-01-28T15:04:34.727Z,6.87
2023-01-28T15:07:26.611Z,6.89
2023-01-28T15:10:16.122Z,6.84
2023-01-28T15:13:04.839Z,6.83
2023-01-28T15:15:41.436Z,6.84
2023-01-28T15:18:30.788Z,6.82
2023-01-28T15:21:00.625Z,6.80
2023-01-28T15:23:34.918Z,6.74
2023-01-28T15:26:19.632Z,6.68
2023-01-28T15:28:50.007Z,6.59
2023-01-28T15:31:23.670Z,6.55
2023-01-28T15:34:05.022Z,6.57
2023-01-28T15:36:32.981Z,6.55
2023-01-28T15:39:00.837Z,6.52
2023-01-28T15:41:37.713Z,6.50
2023-01-28T15:44:05.808Z,6.46
2023-01-28T15:46:34.037Z,6.41
2023-01-28T15:49:04.456Z,6.39
2023-01-28T15:51:34.251Z,6.39
2023-01-28T15:54:10.929Z,6.42
2023-01-28T15:56:38.783Z,6.47
2023-01-28T15:59:21.478Z,6.49
2023-01-28T16:01:49.466Z,6.48
2023-01-28T16:04:27.504Z,6.46
2023-01-28T16:06:58.756Z,6.46
2023-01-28T16:09:35.148Z,6.43
2023-01-28T16:12:11.398Z,6.36
2023-01-28T16:14:49.109Z,6.37
2023-01-28T16:17:21.225Z,6.39
2023-01-28T16:19:57.663Z,6.40
2023-01-28T16:22:38.894Z,6.35
2023-01-28T16:25:41.417Z,6.30
2023-01-28T16:28:20.281Z,6.30
2023-01-28T16:30:48.189Z,6.26
2023-01-28T16:33:22.263Z,6.27
2023-01-28T16:36:06.490Z,6.24
2023-01-28T16:38:35.997Z,6.19
2023-01-28T16:41:04.023Z,6.23
2023-01-28T16:43:31.906Z,6.25
2023-01-28T16:45:59.693Z,6.23
2023-01-28T16:48:30.450Z,6.20
2023-01-28T16:50:58.239Z,6.13
2023-01-28T16:53:33.750Z,6.06
2023-01-28T16:56:02.583Z,6.01
2023-01-28T16:58:30.653Z,5.96
2023-01-28T17:00:58.496Z,5.96
2023-01-28T17:03:27.121Z,6.01
2023-01-28T17:05:55.307Z,6.03
2023-01-28T17:08:23.131Z,5.99
2023-01-28T17:10:55.498Z,5.94
2023-01-28T17:13:23.488Z,5.90
2023-01-28T17:15:52.304Z,5.90
2023-01-28T17:18:20.101Z,5.86
2023-01-28T17:20:47.969Z,5.82
2023-01-28T17:23:17.170Z,5.80
2023-01-28T17:25:45.011Z,5.80
2023-01-28T17:28:12.915Z,5.78
2023-01-28T17:30:42.127Z,5.78
2023-01-28T17:33:10.220Z,5.77
2023-01-28T17:35:38.034Z,5.75
2023-01-28T17:38:06.029Z,5.75
2023-01-28T17:40:33.887Z,5.76
2023-01-28T17:43:01.739Z,5.73
2023-01-28T17:45:32.578Z,5.72
2023-01-28T17:48:00.611Z,5.72
2023-01-28T17:50:28.466Z,5.76
2023-01-28T17:52:57.475Z,5.81
2023-01-28T17:55:26.217Z,5.92
2023-01-28T17:57:53.998Z,5.97
2023-01-28T18:00:22.530Z,5.96
2023-01-28T18:02:52.376Z,5.91
2023-01-28T18:05:20.418Z,5.88
2023-01-28T18:07:50.241Z,5.84
2023-01-28T18:10:18.985Z,5.83
2023-01-28T18:12:46.874Z,5.77
2023-01-28T18:15:15.112Z,5.71
2023-01-28T18:17:43.262Z,5.65
2023-01-28T18:20:11.475Z,5.65
2023-01-28T18:22:39.404Z,5.72
2023-01-28T18:25:08.021Z,5.73
2023-01-28T18:27:35.915Z,5.78
2023-01-28T18:30:04.516Z,5.84
2023-01-28T18:32:32.385Z,5.84
2023-01-28T18:35:02.268Z,5.84
2023-01-28T18:37:30.173Z,5.86
2023-01-28T18:39:58.127Z,5.93
2023-01-28T18:42:26.248Z,5.94
2023-01-28T18:44:54.096Z,5.95
2023-01-28T18:47:22.012Z,5.87
2023-01-28T18:49:50.043Z,5.88
2023-01-28T18:52:17.994Z,5.93
2023-01-28T18:54:46.068Z,5.91
2023-01-28T18:57:13.921Z,5.82
2023-01-28T18:59:41.758Z,5.88
2023-01-28T19:02:13.832Z,5.98
2023-01-28T19:04:41.896Z,5.97
2023-01-28T19:07:11.746Z,5.91
2023-01-28T19:09:39.893Z,5.86
2023-01-28T19:12:07.926Z,5.87
2023-01-28T19:14:35.796Z,5.93
2023-01-28T19:17:03.942Z,5.90
2023-01-28T19:19:31.803Z,5.93
2023-01-28T19:21:59.686Z,5.91
2023-01-28T19:24:27.805Z,5.88
2023-01-28T19:26:55.786Z,5.93
2023-01-28T19:29:25.679Z,6.00
2023-01-28T19:31:53.504Z,6.00
2023-01-28T19:34:21.392Z,5.93
2023-01-28T19:36:49.377Z,5.84
2023-01-28T19:39:17.770Z,5.89
2023-01-28T19:41:45.639Z,5.90
2023-01-28T19:44:13.509Z,5.82
2023-01-28T19:46:41.742Z,5.77
2023-01-28T19:49:10.673Z,5.74
2023-01-28T19:51:38.607Z,5.73
2023-01-28T19:54:06.536Z,5.73
2023-01-28T19:56:36.171Z,5.71
2023-01-28T19:59:04.510Z,5.68
2023-01-28T20:01:32.542Z,5.70
2023-01-28T20:04:01.743Z,5.72
2023-01-28T20:06:31.601Z,5.74
2023-01-28T20:09:05.960Z,5.73
2023-01-28T20:11:34.190Z,5.76
2023-01-28T20:14:02.269Z,5.86
2023-01-28T20:16:33.698Z,5.87
2023-01-28T20:19:06.322Z,5.80
2023-01-28T20:21:36.012Z,5.78
2023-01-28T20:24:04.862Z,5.76
2023-01-28T20:26:37.507Z,5.76
2023-01-28T20:29:09.498Z,5.82
2023-01-28T20:31:39.642Z,5.83
2023-01-28T20:34:08.534Z,5.83
2023-01-28T20:36:37.317Z,5.81
2023-01-28T20:39:05.158Z,5.96
2023-01-28T20:41:33.043Z,5.96
2023-01-28T20:44:00.883Z,6.01
2023-01-28T20:46:32.518Z,6.05
2023-01-28T20:49:03.069Z,6.12
2023-01-28T20:51:34.654Z,6.08
2023-01-28T20:54:05.035Z,5.92
2023-01-28T20:56:33.303Z,5.84
2023-01-28T20:59:04.635Z,5.79
2023-01-28T21:01:34.909Z,5.73
2023-01-28T21:04:05.639Z,5.72
2023-01-28T21:06:34.401Z,5.69
2023-01-28T21:09:04.015Z,5.69
2023-01-28T21:11:32.246Z,5.71
2023-01-28T21:14:00.293Z,5.69
2023-01-28T21:16:28.548Z,5.75
2023-01-28T21:18:56.546Z,5.81
2023-01-28T21:21:28.101Z,5.89
2023-01-28T21:23:59.803Z,5.78
2023-01-28T21:26:28.872Z,5.74
2023-01-28T21:28:56.932Z,5.74
2023-01-28T21:31:26.650Z,5.70
2023-01-28T21:33:57.526Z,5.70
2023-01-28T21:36:26.193Z,5.67
2023-01-28T21:38:56.768Z,5.64
2023-01-28T21:41:25.216Z,5.65
2023-01-28T21:43:54.772Z,5.65
2023-01-28T21:46:29.126Z,5.66
2023-01-28T21:49:00.629Z,5.62
2023-01-28T21:51:35.606Z,5.56
2023-01-28T21:54:25.757Z,5.52
2023-01-28T21:56:53.631Z,5.53
2023-01-28T21:59:30.695Z,5.48
2023-01-28T22:02:09.376Z,5.43
2023-01-28T22:04:40.968Z,5.43
2023-01-28T22:07:11.491Z,5.47
2023-01-28T22:09:40.988Z,5.47
2023-01-28T22:12:09.991Z,5.52
2023-01-28T22:14:39.630Z,5.51
2023-01-28T22:17:11.430Z,5.54
2023-01-28T22:19:40.090Z,5.55
2023-01-28T22:22:08.053Z,5.59
2023-01-28T22:24:35.907Z,5.62
2023-01-28T22:27:03.925Z,5.60
2023-01-28T22:29:31.908Z,5.58
2023-01-28T22:32:00.531Z,5.60
2023-01-28T22:34:28.363Z,5.63
2023-01-28T22:36:56.182Z,5.64
2023-01-28T22:39:24.292Z,5.70
2023-01-28T22:41:52.369Z,5.73
2023-01-28T22:44:20.257Z,5.71
2023-01-28T22:46:48.337Z,5.72
2023-01-28T22:49:16.359Z,5.69
2023-01-28T22:51:44.173Z,5.74
2023-01-28T22:54:14.856Z,5.80
2023-01-28T22:56:43.171Z,5.83
2023-01-28T22:59:12.421Z,5.82
2023-01-28T23:01:40.398Z,5.78
2023-01-28T23:04:08.585Z,5.76
2023-01-28T23:06:37.374Z,5.80
2023-01-28T23:09:05.430Z,5.90
2023-01-28T23:11:33.411Z,5.92
2023-01-28T23:14:21.956Z,5.89
2023-01-28T23:17:09.004Z,5.98
2023-01-28T23:19:55.590Z,6.03
2023-01-28T23:22:49.489Z,6.10
2023-01-28T23:25:18.009Z,6.14
2023-01-28T23:27:45.996Z,6.12
2023-01-28T23:30:15.117Z,6.00
2023-01-28T23:32:48.460Z,5.95
2023-01-28T23:35:19.088Z,5.97
2023-01-28T23:37:48.157Z,5.90
2023-01-28T23:40:17.107Z,5.86
2023-01-28T23:42:49.896Z,5.86
2023-01-28T23:45:18.779Z,5.83
2023-01-28T23:47:47.479Z,5.74
2023-01-28T23:50:16.347Z,5.65
2023-01-28T23:52:44.522Z,5.68
2023-01-28T23:55:12.325Z,5.66
2023-01-28T23:57:40.439Z,5.63
